createdAt,value
2018-02-23T00:00:01.160Z,66.50
2018-02-23T00:02:30.309Z,66.96
2018-02-23T00:04:58.665Z,66.73
2018-02-23T00:07:26.972Z,66.13
2018-02-23T00:09:55.324Z,66.22
2018-02-23T00:12:23.638Z,66.33
2018-02-23T00:14:51.932Z,66.58
2018-02-23T00:17:20.836Z,66.18
2018-02-23T00:19:49.961Z,66.47
2018-02-23T00:22:18.274Z,66.65
2018-02-23T00:24:46.636Z,66.27
2018-02-23T00:27:14.962Z,65.86
2018-02-23T00:29:43.281Z,66.42
2018-02-23T00:32:11.615Z,66.39
2018-02-23T00:34:39.941Z,66.37
2018-02-23T00:37:08.272Z,67.38
2018-02-23T00:39:36.963Z,67.36
2018-02-23T00:42:06.031Z,68.61
2018-02-23T00:44:34.367Z,69.35
2018-02-23T00:47:02.755Z,68.81
2018-02-23T00:49:31.049Z,68.36
2018-02-23T00:51:59.353Z,68.71
2018-02-23T00:54:27.717Z,68.21
2018-02-23T00:56:56.815Z,68.05
2018-02-23T00:59:25.158Z,68.49
2018-02-23T01:01:53.823Z,68.23
2018-02-23T01:04:22.938Z,67.71
2018-02-23T01:06:51.261Z,67.55
2018-02-23T01:09:19.592Z,67.28
2018-02-23T01:11:47.912Z,67.90
2018-02-23T01:14:16.226Z,68.13
2018-02-23T01:16:45.329Z,68.15
2018-02-23T01:19:14.388Z,67.80
2018-02-23T01:21:42.699Z,67.79
2018-02-23T01:24:12.101Z,68.31
2018-02-23T01:26:41.189Z,68.94
2018-02-23T01:29:09.523Z,68.43
2018-02-23T01:31:37.861Z,69.54
2018-02-23T01:34:06.947Z,69.24
2018-02-23T01:36:35.273Z,68.95
2018-02-23T01:39:03.613Z,69.00
2018-02-23T01:41:31.950Z,68.53
2018-02-23T01:44:00.272Z,67.55
2018-02-23T01:46:29.585Z,67.44
2018-02-23T01:48:57.916Z,68.07
2018-02-23T01:51:26.223Z,68.09
2018-02-23T01:53:54.586Z,67.79
2018-02-23T01:56:22.926Z,67.60
2018-02-23T01:58:51.228Z,67.19
2018-02-23T02:01:19.599Z,67.79
2018-02-23T02:03:47.921Z,68.00
2018-02-23T02:06:17.016Z,68.38
2018-02-23T02:08:46.255Z,68.17
2018-02-23T02:11:14.592Z,67.63
2018-02-23T02:13:43.665Z,68.63
2018-02-23T02:16:12.028Z,68.31
2018-02-23T02:18:40.320Z,67.90
2018-02-23T02:21:08.644Z,67.77
2018-02-23T02:23:36.977Z,68.05
2018-02-23T02:26:05.340Z,67.64
2018-02-23T02:28:33.689Z,67.29
2018-02-23T02:31:02.513Z,67.36
2018-02-23T02:33:30.861Z,67.49
2018-02-23T02:35:59.177Z,67.46
2018-02-23T02:38:27.529Z,67.42
2018-02-23T02:40:55.859Z,67.24
2018-02-23T02:43:24.976Z,68.57
2018-02-23T02:45:53.297Z,68.07
2018-02-23T02:48:21.641Z,67.90
2018-02-23T02:50:49.969Z,68.23
2018-02-23T02:53:18.805Z,68.45
2018-02-23T02:55:47.133Z,69.16
2018-02-23T02:58:15.479Z,68.10
2018-02-23T03:00:43.856Z,68.53
2018-02-23T03:03:12.166Z,68.72
2018-02-23T03:05:40.510Z,68.33
2018-02-23T03:08:08.834Z,67.89
2018-02-23T03:10:37.147Z,68.07
2018-02-23T03:13:05.480Z,67.49
2018-02-23T03:15:34.044Z,67.80
2018-02-23T03:18:02.369Z,68.13
2018-02-23T03:20:31.443Z,68.78
2018-02-23T03:22:59.810Z,68.10
2018-02-23T03:25:28.163Z,67.62
2018-02-23T03:27:56.487Z,67.76
2018-02-23T03:30:24.841Z,67.07
2018-02-23T03:32:53.178Z,66.92
2018-02-23T03:35:21.512Z,67.05
2018-02-23T03:37:50.101Z,66.91
2018-02-23T03:40:18.420Z,66.98
2018-02-23T03:42:46.792Z,66.65
2018-02-23T03:45:15.889Z,66.92
2018-02-23T03:47:44.970Z,66.93
2018-02-23T03:50:14.051Z,66.95
2018-02-23T03:52:42.395Z,66.62
2018-02-23T03:55:10.728Z,67.03
2018-02-23T03:57:39.045Z,66.94
2018-02-23T04:00:07.904Z,65.94
2018-02-23T04:02:37.064Z,65.94
2018-02-23T04:05:05.381Z,65.79
2018-02-23T04:07:33.760Z,66.14
2018-02-23T04:10:02.827Z,65.36
2018-02-23T04:12:31.131Z,65.61
2018-02-23T04:14:59.464Z,65.21
2018-02-23T04:17:28.571Z,65.61
2018-02-23T04:19:56.923Z,66.16
2018-02-23T04:22:25.435Z,66.07
2018-02-23T04:24:53.756Z,65.11
2018-02-23T04:27:22.070Z,64.56
2018-02-23T04:29:50.413Z,64.81
2018-02-23T04:32:18.769Z,65.39
2018-02-23T04:34:47.086Z,65.67
2018-02-23T04:37:15.453Z,65.19
2018-02-23T04:39:43.744Z,65.17
2018-02-23T04:42:12.067Z,65.23
2018-02-23T04:44:40.929Z,64.79
2018-02-23T04:47:09.241Z,64.72
2018-02-23T04:49:37.549Z,65.49
2018-02-23T04:52:05.907Z,66.02
2018-02-23T04:54:35.003Z,66.69
2018-02-23T04:57:04.095Z,66.24
2018-02-23T04:59:33.200Z,66.96
2018-02-23T05:02:02.304Z,66.61
2018-02-23T05:04:31.387Z,67.06
2018-02-23T05:07:00.885Z,66.62
2018-02-23T05:09:29.960Z,65.68
2018-02-23T05:11:58.304Z,66.84
2018-02-23T05:14:26.663Z,66.39
2018-02-23T05:16:55.064Z,65.96
2018-02-23T05:19:23.379Z,65.50
2018-02-23T05:21:51.730Z,65.00
2018-02-23T05:24:20.054Z,64.96
2018-02-23T05:26:49.133Z,65.14
2018-02-23T05:29:18.001Z,64.44
2018-02-23T05:31:46.309Z,65.54
2018-02-23T05:34:14.780Z,65.32
2018-02-23T05:36:43.118Z,64.75
2018-02-23T05:39:11.531Z,64.10
2018-02-23T05:41:39.849Z,63.63
2018-02-23T05:44:09.273Z,64.08
2018-02-23T05:46:37.612Z,64.95
2018-02-23T05:49:05.965Z,65.42
2018-02-23T05:51:34.646Z,64.84
2018-02-23T05:54:02.999Z,65.15
2018-02-23T05:56:31.368Z,64.49
2018-02-23T05:59:00.512Z,64.76
2018-02-23T06:01:28.879Z,64.33
2018-02-23T06:03:57.215Z,64.46
2018-02-23T06:06:26.445Z,64.75
2018-02-23T06:08:54.753Z,64.43
2018-02-23T06:11:23.098Z,64.43
2018-02-23T06:13:51.584Z,63.97
2018-02-23T06:16:25.387Z,64.41
2018-02-23T06:18:58.135Z,64.59
2018-02-23T06:21:27.268Z,64.94
2018-02-23T06:23:55.629Z,65.08
2018-02-23T06:26:24.077Z,64.61
2018-02-23T06:28:53.168Z,64.24
2018-02-23T06:31:21.502Z,64.04
2018-02-23T06:33:50.093Z,64.07
2018-02-23T06:36:18.449Z,63.35
2018-02-23T06:38:46.742Z,62.35
2018-02-23T06:41:15.100Z,61.13
2018-02-23T06:43:44.173Z,59.69
2018-02-23T06:46:12.784Z,57.61
2018-02-23T06:48:41.093Z,55.69
2018-02-23T06:51:09.528Z,53.77
2018-02-23T06:53:37.850Z,52.52
2018-02-23T06:56:06.699Z,51.03
2018-02-23T06:58:35.016Z,49.68
2018-02-23T07:01:03.368Z,48.40
2018-02-23T07:03:31.716Z,47.64
2018-02-23T07:06:00.040Z,46.61
2018-02-23T07:08:28.339Z,46.82
2018-02-23T07:10:57.738Z,45.57
2018-02-23T07:13:26.070Z,43.73
2018-02-23T07:15:54.385Z,42.03
2018-02-23T07:18:22.959Z,40.37
2018-02-23T07:20:51.294Z,40.75
2018-02-23T07:23:20.424Z,40.89
2018-02-23T07:25:48.772Z,40.16
2018-02-23T07:28:17.889Z,38.85
2018-02-23T07:30:46.231Z,37.48
2018-02-23T07:33:14.589Z,37.52
2018-02-23T07:35:42.916Z,37.62
2018-02-23T07:38:12.016Z,36.73
2018-02-23T07:40:40.538Z,35.44
2018-02-23T07:43:08.857Z,34.25
2018-02-23T07:45:37.202Z,33.27
2018-02-23T07:48:05.593Z,32.68
2018-02-23T07:50:33.928Z,33.13
2018-02-23T07:53:02.277Z,33.44
2018-02-23T07:55:31.418Z,33.09
2018-02-23T07:57:59.741Z,32.65
2018-02-23T08:00:28.058Z,33.66
2018-02-23T08:02:56.494Z,35.45
2018-02-23T08:05:24.840Z,33.14
2018-02-23T08:07:53.141Z,32.03
2018-02-23T08:10:22.247Z,32.51
2018-02-23T08:12:50.601Z,31.79
2018-02-23T08:15:18.925Z,30.65
2018-02-23T08:17:48.023Z,30.50
2018-02-23T08:20:16.367Z,29.70
2018-02-23T08:22:44.715Z,29.50
2018-02-23T08:25:13.126Z,28.87
2018-02-23T08:27:41.435Z,28.21
2018-02-23T08:30:10.545Z,29.00
2018-02-23T08:32:38.979Z,30.04
2018-02-23T08:35:07.319Z,28.30
2018-02-23T08:37:35.649Z,27.56
2018-02-23T08:40:04.734Z,27.24
2018-02-23T08:42:33.056Z,29.11
2018-02-23T08:45:02.167Z,30.37
2018-02-23T08:47:30.591Z,29.17
2018-02-23T08:49:58.936Z,28.16
2018-02-23T08:52:27.270Z,28.38
2018-02-23T08:54:55.659Z,27.97
2018-02-23T08:57:24.754Z,28.58
2018-02-23T08:59:53.879Z,28.33
2018-02-23T09:02:22.243Z,29.25
2018-02-23T09:04:51.341Z,30.15
2018-02-23T09:07:20.440Z,33.56
2018-02-23T09:09:49.223Z,35.15
2018-02-23T09:12:18.298Z,32.49
2018-02-23T09:14:47.403Z,30.75
2018-02-23T09:17:15.747Z,28.56
2018-02-23T09:19:44.113Z,27.97
2018-02-23T09:22:12.456Z,29.59
2018-02-23T09:24:40.862Z,29.31
2018-02-23T09:27:09.157Z,30.37
2018-02-23T09:29:37.485Z,29.65
2018-02-23T09:35:12.557Z,26.41
2018-02-23T09:37:40.917Z,25.53
2018-02-23T09:40:10.006Z,25.88
2018-02-23T09:42:39.122Z,29.38
2018-02-23T09:45:07.474Z,32.72
2018-02-23T09:47:35.825Z,36.98
2018-02-23T09:50:04.200Z,39.41
2018-02-23T09:52:33.141Z,39.20
2018-02-23T09:55:02.223Z,35.59
2018-02-23T09:57:30.547Z,31.50
2018-02-23T09:59:58.913Z,34.18
2018-02-23T10:02:27.262Z,34.26
2018-02-23T10:04:55.645Z,38.28
2018-02-23T10:07:23.964Z,39.48
2018-02-23T10:09:52.289Z,41.07
2018-02-23T10:12:20.637Z,42.02
2018-02-23T10:14:49.476Z,41.85
2018-02-23T10:17:18.551Z,35.90
2018-02-23T10:19:46.910Z,31.92
2018-02-23T10:22:15.296Z,27.31
2018-02-23T10:24:43.632Z,23.59
2018-02-23T10:27:11.959Z,21.72
2018-02-23T10:29:40.635Z,21.29
2018-02-23T10:32:09.023Z,20.80
2018-02-23T10:34:37.425Z,19.84
2018-02-23T10:37:06.646Z,20.24
2018-02-23T10:39:34.996Z,19.68
2018-02-23T10:42:03.315Z,20.92
2018-02-23T10:44:31.714Z,20.69
2018-02-23T10:47:00.056Z,20.33
2018-02-23T10:49:29.141Z,18.45
2018-02-23T10:51:58.267Z,18.41
2018-02-23T10:54:26.618Z,18.02
2018-02-23T10:56:54.941Z,17.79
2018-02-23T10:59:23.563Z,18.09
2018-02-23T11:01:51.955Z,17.43
2018-02-23T11:04:21.072Z,18.14
2018-02-23T11:06:49.445Z,19.23
2018-02-23T11:09:17.785Z,19.70
2018-02-23T11:11:46.131Z,18.93
2018-02-23T11:14:14.469Z,18.46
2018-02-23T11:16:42.809Z,18.41
2018-02-23T11:19:11.136Z,18.56
2018-02-23T11:21:39.929Z,19.40
2018-02-23T11:24:08.252Z,20.45
2018-02-23T11:26:36.572Z,21.70
2018-02-23T11:29:05.688Z,21.05
2018-02-23T11:31:34.018Z,20.37
2018-02-23T11:34:02.326Z,19.85
2018-02-23T11:36:31.429Z,20.33
2018-02-23T11:38:59.838Z,19.89
2018-02-23T11:41:28.192Z,19.83
2018-02-23T11:43:56.730Z,19.92
2018-02-23T11:46:25.036Z,20.78
2018-02-23T11:48:54.109Z,21.64
2018-02-23T11:51:22.438Z,21.69
2018-02-23T11:53:50.752Z,19.97
2018-02-23T11:56:19.068Z,19.42
2018-02-23T11:58:48.181Z,18.97
2018-02-23T12:01:16.516Z,18.65
2018-02-23T12:03:44.829Z,20.50
2018-02-23T12:06:14.217Z,19.02
2018-02-23T12:08:42.593Z,17.30
2018-02-23T12:11:11.866Z,18.67
2018-02-23T12:13:40.259Z,18.98
2018-02-23T12:16:08.570Z,20.26
2018-02-23T12:18:37.664Z,20.27
2018-02-23T12:21:06.029Z,18.88
2018-02-23T12:23:35.184Z,18.75
2018-02-23T12:26:03.487Z,17.96
2018-02-23T12:28:32.209Z,17.76
2018-02-23T12:31:00.531Z,16.71
2018-02-23T12:33:28.882Z,17.87
2018-02-23T12:35:57.240Z,20.56
2018-02-23T12:38:25.605Z,24.88
2018-02-23T12:40:53.953Z,24.87
2018-02-23T12:43:22.312Z,23.99
2018-02-23T12:45:50.653Z,21.48
2018-02-23T12:48:19.744Z,20.66
2018-02-23T12:50:48.992Z,21.23
2018-02-23T12:53:17.314Z,21.22
2018-02-23T12:55:46.433Z,20.67
2018-02-23T12:58:15.529Z,19.83
2018-02-23T13:00:44.635Z,19.25
2018-02-23T13:03:12.985Z,19.36
2018-02-23T13:05:42.136Z,19.09
2018-02-23T13:08:10.500Z,20.09
2018-02-23T13:10:38.853Z,19.07
2018-02-23T13:13:08.188Z,19.13
2018-02-23T13:15:36.522Z,20.08
2018-02-23T13:18:05.638Z,20.39
2018-02-23T13:20:34.004Z,19.98
2018-02-23T13:23:03.083Z,19.84
2018-02-23T13:25:31.403Z,20.77
2018-02-23T13:28:05.076Z,20.90
2018-02-23T13:30:34.157Z,21.67
2018-02-23T13:33:02.509Z,22.48
2018-02-23T13:35:31.233Z,20.40
2018-02-23T13:37:59.570Z,18.84
2018-02-23T13:40:30.713Z,19.82
2018-02-23T13:42:59.074Z,19.61
2018-02-23T13:45:27.385Z,19.20
2018-02-23T13:47:55.715Z,18.79
2018-02-23T13:50:24.065Z,18.75
2018-02-23T13:52:52.475Z,19.97
2018-02-23T13:55:20.819Z,21.85
2018-02-23T13:57:49.620Z,24.06
2018-02-23T14:00:17.943Z,24.08
2018-02-23T14:02:46.276Z,23.29
2018-02-23T14:05:15.428Z,22.61
2018-02-23T14:07:43.738Z,22.50
2018-02-23T14:10:12.073Z,21.77
2018-02-23T14:12:40.451Z,20.82
2018-02-23T14:15:08.783Z,21.41
2018-02-23T14:17:37.986Z,21.70
2018-02-23T14:20:06.691Z,22.70
2018-02-23T14:22:35.005Z,21.40
2018-02-23T14:25:03.352Z,20.41
2018-02-23T14:27:31.679Z,22.08
2018-02-23T14:30:00.005Z,24.26
2018-02-23T14:32:29.138Z,22.79
2018-02-23T14:34:57.687Z,21.28
2018-02-23T14:37:26.091Z,21.63
2018-02-23T14:39:54.432Z,21.12
2018-02-23T14:42:23.847Z,21.39
2018-02-23T14:44:52.301Z,21.48
2018-02-23T14:47:20.604Z,20.68
2018-02-23T14:50:07.335Z,21.21
2018-02-23T14:52:35.667Z,21.94
2018-02-23T14:55:03.982Z,21.38
2018-02-23T14:57:32.547Z,21.24
2018-02-23T15:00:01.665Z,21.46
2018-02-23T15:02:30.004Z,20.90
2018-02-23T15:04:58.382Z,20.38
2018-02-23T15:07:26.754Z,21.17
2018-02-23T15:09:55.108Z,21.82
2018-02-23T15:12:23.478Z,21.38
2018-02-23T15:14:51.841Z,21.37
2018-02-23T15:17:20.188Z,21.10
2018-02-23T15:19:49.806Z,20.24
2018-02-23T15:22:18.130Z,20.44
2018-02-23T15:24:46.440Z,20.23
2018-02-23T15:27:14.799Z,19.83
2018-02-23T15:29:43.140Z,20.75
2018-02-23T15:32:41.103Z,20.92
2018-02-23T15:35:10.523Z,21.11
2018-02-23T15:37:38.853Z,21.92
2018-02-23T15:40:07.379Z,22.50
2018-02-23T15:42:35.701Z,22.88
2018-02-23T15:45:04.034Z,24.87
2018-02-23T15:47:37.217Z,24.10
2018-02-23T15:53:15.138Z,26.23
2018-02-23T15:55:44.254Z,27.07
2018-02-23T16:01:12.212Z,28.44
2018-02-23T16:03:41.321Z,29.12
2018-02-23T16:06:09.638Z,29.37
2018-02-23T16:08:37.975Z,29.47
2018-02-23T16:11:07.109Z,29.63
2018-02-23T16:13:35.426Z,30.12
2018-02-23T16:16:03.761Z,30.07
2018-02-23T16:18:32.581Z,30.39
2018-02-23T16:21:00.915Z,30.95
2018-02-23T16:23:29.239Z,30.96
2018-02-23T16:25:57.605Z,30.84
2018-02-23T16:28:25.937Z,31.12
2018-02-23T16:30:54.267Z,31.25
2018-02-23T16:33:22.597Z,31.68
2018-02-23T16:35:51.236Z,31.85
2018-02-23T16:38:19.565Z,31.97
2018-02-23T16:40:48.118Z,32.30
2018-02-23T16:43:16.445Z,33.27
2018-02-23T16:45:44.776Z,32.52
2018-02-23T16:48:13.128Z,32.74
2018-02-23T16:50:41.462Z,32.53
2018-02-23T16:53:09.769Z,33.11
2018-02-23T16:55:38.148Z,33.08
2018-02-23T16:58:06.487Z,33.36
2018-02-23T17:00:34.830Z,33.15
2018-02-23T17:03:03.683Z,32.83
2018-02-23T17:05:32.032Z,33.23
2018-02-23T17:08:01.117Z,33.63
2018-02-23T17:10:30.225Z,33.59
2018-02-23T17:12:59.305Z,34.08
2018-02-23T17:15:28.381Z,34.51
2018-02-23T17:17:56.745Z,34.42
2018-02-23T17:20:25.076Z,34.84
2018-02-23T17:22:53.418Z,34.46
2018-02-23T17:25:22.080Z,34.91
2018-02-23T17:27:50.473Z,34.85
2018-02-23T17:30:18.817Z,35.27
2018-02-23T17:32:47.154Z,35.38
2018-02-23T17:35:15.450Z,35.62
2018-02-23T17:37:44.878Z,35.29
2018-02-23T17:40:13.220Z,35.54
2018-02-23T17:42:42.294Z,35.93
2018-02-23T17:45:10.644Z,35.29
2018-02-23T17:47:39.396Z,35.93
2018-02-23T17:50:07.742Z,36.10
2018-02-23T17:52:36.064Z,36.55
2018-02-23T17:55:04.429Z,36.56
2018-02-23T17:57:32.772Z,36.31
2018-02-23T18:00:01.099Z,36.64
2018-02-23T18:02:29.490Z,37.27
2018-02-23T18:04:57.810Z,37.28
2018-02-23T18:07:26.142Z,36.92
2018-02-23T18:09:55.469Z,37.42
2018-02-23T18:12:23.790Z,37.64
2018-02-23T18:14:52.128Z,37.44
2018-02-23T18:17:20.494Z,38.18
2018-02-23T18:19:50.169Z,38.65
2018-02-23T18:22:19.267Z,38.55
2018-02-23T18:24:48.367Z,38.80
2018-02-23T18:27:17.502Z,38.90
2018-02-23T18:29:45.837Z,39.23
2018-02-23T18:32:14.516Z,39.83
2018-02-23T18:34:42.869Z,39.96
2018-02-23T18:37:11.213Z,39.90
2018-02-23T18:39:40.092Z,40.86
2018-02-23T18:42:08.412Z,41.23
2018-02-23T18:44:36.741Z,41.32
2018-02-23T18:47:05.098Z,40.96
2018-02-23T18:49:34.187Z,41.70
2018-02-23T18:52:03.275Z,42.18
2018-02-23T18:54:32.313Z,42.28
2018-02-23T18:57:00.663Z,42.53
2018-02-23T18:59:29.777Z,42.84
2018-02-23T19:01:58.195Z,43.28
2018-02-23T19:04:26.534Z,43.38
2018-02-23T19:06:55.628Z,43.83
2018-02-23T19:09:24.764Z,43.97
2018-02-23T19:11:53.071Z,43.90
2018-02-23T19:14:21.395Z,44.70
2018-02-23T19:16:50.112Z,44.91
2018-02-23T19:19:18.435Z,44.79
2018-02-23T19:21:46.772Z,45.61
2018-02-23T19:24:15.172Z,45.61
2018-02-23T19:26:43.476Z,46.07
2018-02-23T19:29:12.609Z,46.12
2018-02-23T19:31:40.974Z,46.14
2018-02-23T19:34:09.289Z,46.60
2018-02-23T19:36:37.616Z,46.89
2018-02-23T19:39:06.366Z,47.51
2018-02-23T19:41:34.677Z,47.69
2018-02-23T19:44:03.034Z,47.88
2018-02-23T19:46:31.354Z,48.24
2018-02-23T19:48:59.672Z,48.40
2018-02-23T19:51:27.982Z,48.74
2018-02-23T19:53:56.350Z,48.80
2018-02-23T19:56:24.664Z,49.36
2018-02-23T19:58:52.965Z,48.99
2018-02-23T20:01:21.605Z,48.50
2018-02-23T20:03:50.748Z,48.87
2018-02-23T20:06:19.091Z,49.16
2018-02-23T20:08:47.743Z,49.09
2018-02-23T20:11:16.058Z,49.13
2018-02-23T20:13:44.423Z,49.15
2018-02-23T20:16:13.570Z,48.91
2018-02-23T20:18:41.936Z,49.67
2018-02-23T20:21:10.289Z,49.96
2018-02-23T20:23:39.863Z,49.66
2018-02-23T20:26:08.253Z,49.83
2018-02-23T20:28:36.779Z,49.29
2018-02-23T20:31:05.158Z,49.43
2018-02-23T20:33:33.500Z,49.96
2018-02-23T20:36:02.638Z,49.82
2018-02-23T20:38:31.039Z,50.04
2018-02-23T20:40:59.397Z,49.82
2018-02-23T20:43:27.746Z,50.01
2018-02-23T20:45:57.245Z,50.27
2018-02-23T20:48:27.062Z,50.66
2018-02-23T20:50:56.205Z,50.57
2018-02-23T20:53:24.616Z,50.55
2018-02-23T20:55:52.952Z,50.55
2018-02-23T20:58:21.296Z,50.81
2018-02-23T21:00:50.421Z,50.54
2018-02-23T21:03:18.843Z,50.92
2018-02-23T21:05:47.291Z,50.86
2018-02-23T21:08:16.085Z,51.49
2018-02-23T21:10:44.432Z,51.13
2018-02-23T21:13:12.756Z,51.24
2018-02-23T21:15:41.190Z,52.11
2018-02-23T21:18:09.571Z,52.17
2018-02-23T21:20:38.043Z,52.64
2018-02-23T21:23:07.231Z,51.57
2018-02-23T21:25:36.341Z,51.83
2018-02-23T21:28:05.435Z,52.04
2018-02-23T21:30:35.033Z,51.81
2018-02-23T21:33:03.368Z,51.75
2018-02-23T21:35:31.699Z,52.30
2018-02-23T21:38:00.860Z,51.81
2018-02-23T21:40:29.306Z,51.88
2018-02-23T21:42:57.621Z,52.07
2018-02-23T21:45:26.013Z,52.04
2018-02-23T21:47:55.182Z,51.87
2018-02-23T21:50:23.577Z,52.01
2018-02-23T21:52:52.853Z,52.18
2018-02-23T21:55:21.259Z,52.12
2018-02-23T21:57:49.658Z,52.07
2018-02-23T22:00:18.333Z,51.83
2018-02-23T22:02:46.667Z,52.15
2018-02-23T22:05:15.060Z,52.12
2018-02-23T22:07:43.420Z,51.87
2018-02-23T22:10:11.737Z,52.56
2018-02-23T22:12:40.058Z,52.33
2018-02-23T22:15:08.650Z,52.27
2018-02-23T22:17:36.998Z,52.57
2018-02-23T22:20:05.343Z,52.83
2018-02-23T22:22:33.709Z,52.34
2018-02-23T22:25:02.026Z,52.58
2018-02-23T22:27:30.344Z,53.28
2018-02-23T22:29:58.711Z,52.93
2018-02-23T22:32:27.813Z,52.86
2018-02-23T22:34:56.153Z,52.71
2018-02-23T22:37:25.002Z,53.82
2018-02-23T22:39:53.327Z,53.61
2018-02-23T22:42:21.632Z,52.59
2018-02-23T22:44:49.962Z,52.77
2018-02-23T22:47:19.063Z,53.50
2018-02-23T22:49:48.157Z,53.34
2018-02-23T22:52:16.493Z,54.02
2018-02-23T22:54:44.837Z,53.52
2018-02-23T22:57:13.164Z,53.74
2018-02-23T22:59:41.638Z,53.10
2018-02-23T23:02:10.042Z,53.30
2018-02-23T23:04:38.503Z,53.74
2018-02-23T23:07:14.625Z,54.16
2018-02-23T23:09:43.012Z,53.84
2018-02-23T23:12:12.109Z,54.14
2018-02-23T23:14:41.268Z,54.37
2018-02-23T23:17:09.580Z,54.08
2018-02-23T23:19:38.673Z,53.83
2018-02-23T23:22:08.600Z,53.83
2018-02-23T23:24:36.955Z,53.51
2018-02-23T23:27:05.291Z,53.62
2018-02-23T23:29:33.669Z,53.51
2018-02-23T23:32:01.999Z,53.80
2018-02-23T23:34:30.357Z,54.13
2018-02-23T23:36:58.715Z,53.84
2018-02-23T23:39:31.878Z,54.14
2018-02-23T23:42:01.580Z,53.80
2018-02-23T23:44:29.878Z,54.35
2018-02-23T23:46:58.221Z,54.28
2018-02-23T23:49:27.324Z,54.29
2018-02-23T23:51:56.413Z,54.32
2018-02-23T23:54:25.541Z,54.59
2018-02-23T23:56:53.871Z,54.82
2018-02-23T23:59:22.175Z,54.82
